CSN5101 ZSHC-ZBAD
Flight info
| Callsign | CSN5101 |
|---|---|
| Flight time | 1h 44m |
| Altitude | 38100 |
| Route | NIVIK8D NIVIK W135 DOGVI A470 DPX A593 DALIM W157 AVBOX AVBOX5L |
| Aircraft | B77W/H-SDE1E2E3FGHIJ2J3J4J5M1RWXY/LB1D1 |
Departure
| Time | 2026-04-22 11:57 |
|---|---|
| Airport | Hangzhou Xiaoshan International Airport (ZSHC) |
Arrival
| Time | 2026-04-22 13:42 |
|---|---|
| Airport | Beijing Daxing International Airport (ZBAD) |
| Time | Latitude | Longitude | Altitude | Speed | Heading |
|---|---|---|---|---|---|
| 2026-04-22 11:56 | 30.25186 | 120.43916 | 34 ft | 1 kts | 243° |
| 2026-04-22 11:57 | 30.25071 | 120.43642 | 34 ft | 91 kts | 245° |
| 2026-04-22 11:57 | 30.24641 | 120.42669 | 98 ft | 182 kts | 246° |
| 2026-04-22 11:57 | 30.23998 | 120.41183 | 722 ft | 232 kts | 243° |
| 2026-04-22 11:57 | 30.23180 | 120.39513 | 1351 ft | 246 kts | 245° |
| 2026-04-22 11:58 | 30.22415 | 120.37727 | 1832 ft | 255 kts | 246° |
| 2026-04-22 11:58 | 30.21624 | 120.35900 | 2296 ft | 257 kts | 245° |
| 2026-04-22 11:58 | 30.20810 | 120.34058 | 2755 ft | 258 kts | 245° |
| 2026-04-22 11:58 | 30.19987 | 120.32207 | 3281 ft | 258 kts | 245° |
| 2026-04-22 11:59 | 30.19172 | 120.30374 | 3832 ft | 259 kts | 244° |
| 2026-04-22 11:59 | 30.18344 | 120.28514 | 4400 ft | 261 kts | 245° |
| 2026-04-22 11:59 | 30.17511 | 120.26644 | 4960 ft | 261 kts | 244° |
| 2026-04-22 11:59 | 30.16664 | 120.24743 | 5528 ft | 274 kts | 244° |
| 2026-04-22 12:00 | 30.15812 | 120.22694 | 6115 ft | 299 kts | 252° |
| 2026-04-22 12:00 | 30.15568 | 120.20286 | 6696 ft | 316 kts | 275° |
| 2026-04-22 12:00 | 30.16225 | 120.17889 | 7239 ft | 321 kts | 298° |
| 2026-04-22 12:00 | 30.17737 | 120.15971 | 7778 ft | 328 kts | 323° |
| 2026-04-22 12:01 | 30.19763 | 120.14870 | 8315 ft | 333 kts | 336° |
| 2026-04-22 12:01 | 30.21934 | 120.13884 | 8862 ft | 336 kts | 333° |
| 2026-04-22 12:01 | 30.23723 | 120.12914 | 9318 ft | 338 kts | 330° |
| 2026-04-22 12:01 | 30.25767 | 120.11700 | 9842 ft | 339 kts | 328° |
| 2026-04-22 12:02 | 30.27691 | 120.10513 | 10338 ft | 342 kts | 328° |
| 2026-04-22 12:02 | 30.29641 | 120.09292 | 10833 ft | 344 kts | 327° |
| 2026-04-22 12:02 | 30.29700 | 120.09255 | 10847 ft | 344 kts | 327° |
| 2026-04-22 12:02 | 30.31254 | 120.08276 | 11250 ft | 347 kts | 327° |
| 2026-04-22 12:03 | 30.33400 | 120.06921 | 11792 ft | 352 kts | 327° |
| 2026-04-22 12:03 | 30.35457 | 120.05621 | 12306 ft | 354 kts | 327° |
| 2026-04-22 12:03 | 30.37653 | 120.04232 | 12847 ft | 357 kts | 327° |
| 2026-04-22 12:03 | 30.39863 | 120.02834 | 13384 ft | 360 kts | 326° |
| 2026-04-22 12:04 | 30.42043 | 120.01453 | 13909 ft | 362 kts | 326° |
| 2026-04-22 12:04 | 30.44264 | 120.00046 | 14433 ft | 365 kts | 326° |
| 2026-04-22 12:04 | 30.46508 | 119.98625 | 14965 ft | 368 kts | 326° |
| 2026-04-22 12:04 | 30.48784 | 119.97184 | 15488 ft | 371 kts | 326° |
| 2026-04-22 12:05 | 30.51057 | 119.95744 | 16008 ft | 375 kts | 326° |
| 2026-04-22 12:05 | 30.53352 | 119.94289 | 16528 ft | 378 kts | 326° |
| 2026-04-22 12:05 | 30.55678 | 119.92815 | 17041 ft | 380 kts | 326° |
| 2026-04-22 12:05 | 30.58022 | 119.91327 | 17553 ft | 385 kts | 326° |
| 2026-04-22 12:06 | 30.60414 | 119.89969 | 18063 ft | 389 kts | 333° |
| 2026-04-22 12:06 | 30.63032 | 119.89049 | 18577 ft | 401 kts | 342° |
| 2026-04-22 12:06 | 30.65857 | 119.88646 | 19081 ft | 409 kts | 353° |
| 2026-04-22 12:06 | 30.68696 | 119.88771 | 19585 ft | 414 kts | 357° |
| 2026-04-22 12:07 | 30.71577 | 119.88672 | 20100 ft | 414 kts | 347° |
| 2026-04-22 12:07 | 30.74420 | 119.88032 | 20618 ft | 413 kts | 339° |
| 2026-04-22 12:07 | 30.77130 | 119.87001 | 21122 ft | 411 kts | 333° |
| 2026-04-22 12:07 | 30.79741 | 119.85691 | 21621 ft | 408 kts | 328° |
| 2026-04-22 12:08 | 30.82280 | 119.84180 | 22129 ft | 407 kts | 326° |
| 2026-04-22 12:08 | 30.84710 | 119.82581 | 22612 ft | 406 kts | 323° |
| 2026-04-22 12:08 | 30.87152 | 119.80838 | 23131 ft | 408 kts | 321° |
| 2026-04-22 12:08 | 30.89535 | 119.79036 | 23643 ft | 410 kts | 320° |
| 2026-04-22 12:09 | 30.91889 | 119.77183 | 24172 ft | 412 kts | 319° |
| 2026-04-22 12:09 | 30.94252 | 119.75270 | 24722 ft | 415 kts | 319° |
| 2026-04-22 12:09 | 30.96617 | 119.73315 | 25273 ft | 420 kts | 319° |
| 2026-04-22 12:09 | 30.99021 | 119.71299 | 25831 ft | 424 kts | 318° |
| 2026-04-22 12:10 | 31.01415 | 119.69276 | 26389 ft | 425 kts | 318° |
| 2026-04-22 12:10 | 31.03788 | 119.67254 | 26932 ft | 431 kts | 317° |
| 2026-04-22 12:10 | 31.06225 | 119.65169 | 27496 ft | 433 kts | 317° |
| 2026-04-22 12:10 | 31.08663 | 119.63075 | 28060 ft | 436 kts | 317° |
| 2026-04-22 12:11 | 31.11114 | 119.60966 | 28608 ft | 439 kts | 317° |
| 2026-04-22 12:11 | 31.13589 | 119.58829 | 29178 ft | 444 kts | 317° |
| 2026-04-22 12:11 | 31.16071 | 119.56685 | 29772 ft | 447 kts | 317° |
| 2026-04-22 12:11 | 31.18564 | 119.54528 | 30365 ft | 452 kts | 317° |
| 2026-04-22 12:12 | 31.21101 | 119.52330 | 30910 ft | 454 kts | 317° |
| 2026-04-22 12:12 | 31.23640 | 119.50129 | 31002 ft | 457 kts | 317° |
| 2026-04-22 12:12 | 31.28766 | 119.45680 | 31011 ft | 458 kts | 317° |
| 2026-04-22 12:13 | 31.33863 | 119.41250 | 31019 ft | 457 kts | 317° |
| 2026-04-22 12:13 | 31.39001 | 119.36776 | 31026 ft | 456 kts | 317° |
| 2026-04-22 12:14 | 31.44042 | 119.32380 | 31042 ft | 454 kts | 317° |
| 2026-04-22 12:14 | 31.49044 | 119.28011 | 31045 ft | 455 kts | 317° |
| 2026-04-22 12:15 | 31.54137 | 119.23558 | 31049 ft | 452 kts | 317° |
| 2026-04-22 12:15 | 31.59139 | 119.19154 | 31050 ft | 453 kts | 317° |
| 2026-04-22 12:16 | 31.64138 | 119.14716 | 31050 ft | 451 kts | 316° |
| 2026-04-22 12:16 | 31.68860 | 119.10037 | 31046 ft | 450 kts | 313° |
| 2026-04-22 12:17 | 31.73533 | 119.05190 | 31049 ft | 448 kts | 313° |
| 2026-04-22 12:17 | 31.77842 | 119.00747 | 31045 ft | 447 kts | 313° |
| 2026-04-22 12:18 | 31.82642 | 118.96426 | 31045 ft | 456 kts | 324° |
| 2026-04-22 12:18 | 31.88240 | 118.93587 | 31043 ft | 465 kts | 332° |
| 2026-04-22 12:19 | 31.93594 | 118.91197 | 31048 ft | 464 kts | 333° |
| 2026-04-22 12:19 | 31.99658 | 118.88483 | 31047 ft | 466 kts | 333° |
| 2026-04-22 12:20 | 32.05782 | 118.85733 | 31052 ft | 466 kts | 333° |
| 2026-04-22 12:20 | 32.11739 | 118.83054 | 31055 ft | 466 kts | 333° |
| 2026-04-22 12:21 | 32.17574 | 118.80423 | 31054 ft | 466 kts | 333° |
| 2026-04-22 12:21 | 32.23604 | 118.77700 | 31062 ft | 465 kts | 333° |
| 2026-04-22 12:22 | 32.29700 | 118.74944 | 31062 ft | 465 kts | 333° |
| 2026-04-22 12:22 | 32.35705 | 118.72224 | 31062 ft | 465 kts | 333° |
| 2026-04-22 12:23 | 32.41786 | 118.69466 | 31065 ft | 465 kts | 333° |
| 2026-04-22 12:23 | 32.47845 | 118.66713 | 31066 ft | 465 kts | 333° |
| 2026-04-22 12:24 | 32.53890 | 118.63963 | 31068 ft | 467 kts | 333° |
| 2026-04-22 12:24 | 32.59994 | 118.61182 | 31070 ft | 466 kts | 333° |
| 2026-04-22 12:25 | 32.66066 | 118.58412 | 31070 ft | 465 kts | 333° |
| 2026-04-22 12:25 | 32.72248 | 118.55945 | 31071 ft | 468 kts | 338° |
| 2026-04-22 12:26 | 32.78506 | 118.53775 | 31071 ft | 469 kts | 338° |
| 2026-04-22 12:26 | 32.84746 | 118.51580 | 31077 ft | 470 kts | 338° |
| 2026-04-22 12:27 | 32.90334 | 118.49598 | 31079 ft | 471 kts | 338° |
| 2026-04-22 12:27 | 32.96578 | 118.47372 | 31081 ft | 471 kts | 337° |
| 2026-04-22 12:28 | 33.02811 | 118.45140 | 31085 ft | 471 kts | 337° |
| 2026-04-22 12:28 | 33.09038 | 118.42906 | 31086 ft | 470 kts | 337° |
| 2026-04-22 12:29 | 33.16088 | 118.40369 | 31086 ft | 471 kts | 337° |
| 2026-04-22 12:29 | 33.21303 | 118.38490 | 31089 ft | 470 kts | 337° |
| 2026-04-22 12:30 | 33.30755 | 118.35085 | 31089 ft | 473 kts | 337° |
| 2026-04-22 12:31 | 33.37056 | 118.32815 | 31103 ft | 471 kts | 336° |
| 2026-04-22 12:31 | 33.43321 | 118.30552 | 31110 ft | 472 kts | 336° |
| 2026-04-22 12:32 | 33.49633 | 118.28268 | 31110 ft | 472 kts | 336° |
| 2026-04-22 12:32 | 33.59082 | 118.24844 | 31107 ft | 473 kts | 336° |
| 2026-04-22 12:33 | 33.65415 | 118.22544 | 31111 ft | 472 kts | 336° |
| 2026-04-22 12:33 | 33.71731 | 118.20246 | 31110 ft | 474 kts | 336° |
| 2026-04-22 12:34 | 33.77013 | 118.18323 | 31109 ft | 473 kts | 336° |
| 2026-04-22 12:34 | 33.83219 | 118.16061 | 31112 ft | 474 kts | 336° |
| 2026-04-22 12:35 | 33.89517 | 118.13773 | 31116 ft | 475 kts | 336° |
| 2026-04-22 12:35 | 33.95876 | 118.11459 | 31117 ft | 475 kts | 336° |
| 2026-04-22 12:36 | 34.02211 | 118.09152 | 31118 ft | 475 kts | 336° |
| 2026-04-22 12:36 | 34.08548 | 118.06852 | 31118 ft | 475 kts | 336° |
| 2026-04-22 12:37 | 34.14829 | 118.04571 | 31116 ft | 474 kts | 336° |
| 2026-04-22 12:37 | 34.21042 | 118.02309 | 31119 ft | 475 kts | 336° |
| 2026-04-22 12:38 | 34.27421 | 117.99984 | 31124 ft | 474 kts | 336° |
| 2026-04-22 12:38 | 34.33779 | 117.97707 | 31123 ft | 474 kts | 336° |
| 2026-04-22 12:39 | 34.43174 | 117.94360 | 31123 ft | 473 kts | 336° |
| 2026-04-22 12:40 | 34.49422 | 117.92128 | 31124 ft | 471 kts | 336° |
| 2026-04-22 12:40 | 34.55438 | 117.89974 | 31120 ft | 472 kts | 336° |
| 2026-04-22 12:41 | 34.61831 | 117.87682 | 31123 ft | 471 kts | 336° |
| 2026-04-22 12:41 | 34.68110 | 117.85426 | 31124 ft | 472 kts | 336° |
| 2026-04-22 12:42 | 34.74356 | 117.83178 | 31127 ft | 473 kts | 336° |
| 2026-04-22 12:42 | 34.80655 | 117.80909 | 31129 ft | 471 kts | 336° |
| 2026-04-22 12:43 | 34.86959 | 117.78610 | 31128 ft | 470 kts | 336° |
| 2026-04-22 12:43 | 34.93259 | 117.76305 | 31126 ft | 469 kts | 336° |
| 2026-04-22 12:44 | 34.99537 | 117.74007 | 31128 ft | 468 kts | 336° |
| 2026-04-22 12:44 | 35.05816 | 117.71706 | 31122 ft | 467 kts | 336° |
| 2026-04-22 12:45 | 35.12008 | 117.69434 | 31119 ft | 468 kts | 335° |
| 2026-04-22 12:46 | 35.22448 | 117.65601 | 31121 ft | 469 kts | 335° |
| 2026-04-22 12:46 | 35.28624 | 117.63330 | 31114 ft | 468 kts | 335° |
| 2026-04-22 12:47 | 35.34718 | 117.61083 | 31114 ft | 468 kts | 335° |
| 2026-04-22 12:47 | 35.41007 | 117.58761 | 31119 ft | 469 kts | 335° |
| 2026-04-22 12:48 | 35.44581 | 117.57442 | 31123 ft | 467 kts | 334° |
| 2026-04-22 12:48 | 35.50816 | 117.55135 | 31115 ft | 466 kts | 334° |
| 2026-04-22 12:49 | 35.57027 | 117.52832 | 31112 ft | 467 kts | 334° |
| 2026-04-22 12:49 | 35.63307 | 117.50500 | 31115 ft | 467 kts | 334° |
| 2026-04-22 12:50 | 35.69476 | 117.48206 | 31114 ft | 465 kts | 334° |
| 2026-04-22 12:50 | 35.75683 | 117.45895 | 31119 ft | 465 kts | 334° |
| 2026-04-22 12:51 | 35.81919 | 117.43566 | 31123 ft | 466 kts | 334° |
| 2026-04-22 12:51 | 35.88131 | 117.41245 | 31122 ft | 467 kts | 334° |
| 2026-04-22 12:52 | 35.94331 | 117.38924 | 31125 ft | 465 kts | 334° |
| 2026-04-22 12:52 | 36.00541 | 117.36597 | 31125 ft | 464 kts | 333° |
| 2026-04-22 12:53 | 36.06697 | 117.34322 | 31144 ft | 463 kts | 333° |
| 2026-04-22 12:53 | 36.12900 | 117.32029 | 31134 ft | 467 kts | 333° |
| 2026-04-22 12:54 | 36.19126 | 117.29723 | 31145 ft | 468 kts | 333° |
| 2026-04-22 12:54 | 36.25366 | 117.27410 | 31132 ft | 470 kts | 333° |
| 2026-04-22 12:55 | 36.31611 | 117.25091 | 31129 ft | 468 kts | 333° |
| 2026-04-22 12:55 | 36.37881 | 117.22757 | 31137 ft | 470 kts | 333° |
| 2026-04-22 12:56 | 36.44056 | 117.20138 | 31145 ft | 469 kts | 328° |
| 2026-04-22 12:56 | 36.50037 | 117.17033 | 31126 ft | 465 kts | 327° |
| 2026-04-22 12:57 | 36.56039 | 117.13905 | 31120 ft | 465 kts | 327° |
| 2026-04-22 12:57 | 36.62006 | 117.10791 | 31121 ft | 468 kts | 328° |
| 2026-04-22 12:58 | 36.67943 | 117.07694 | 31129 ft | 464 kts | 328° |
| 2026-04-22 12:58 | 36.73949 | 117.04549 | 31104 ft | 470 kts | 328° |
| 2026-04-22 12:59 | 36.79993 | 117.01386 | 31106 ft | 468 kts | 328° |
| 2026-04-22 12:59 | 36.86002 | 116.98233 | 31115 ft | 470 kts | 328° |
| 2026-04-22 13:00 | 36.92023 | 116.95069 | 31109 ft | 472 kts | 328° |
| 2026-04-22 13:00 | 36.98078 | 116.91885 | 30836 ft | 465 kts | 328° |
| 2026-04-22 13:00 | 37.01033 | 116.90334 | 30575 ft | 455 kts | 329° |
| 2026-04-22 13:01 | 37.03904 | 116.88822 | 30293 ft | 446 kts | 329° |
| 2026-04-22 13:01 | 37.06762 | 116.87315 | 30014 ft | 441 kts | 329° |
| 2026-04-22 13:01 | 37.09633 | 116.85795 | 29721 ft | 444 kts | 329° |
| 2026-04-22 13:01 | 37.12456 | 116.84299 | 29413 ft | 444 kts | 329° |
| 2026-04-22 13:02 | 37.15292 | 116.82799 | 29104 ft | 441 kts | 329° |
| 2026-04-22 13:02 | 37.18100 | 116.81313 | 28790 ft | 436 kts | 329° |
| 2026-04-22 13:02 | 37.20863 | 116.79851 | 28480 ft | 432 kts | 330° |
| 2026-04-22 13:02 | 37.23756 | 116.78618 | 28162 ft | 432 kts | 336° |
| 2026-04-22 13:03 | 37.26584 | 116.77550 | 27857 ft | 429 kts | 336° |
| 2026-04-22 13:03 | 37.29462 | 116.76469 | 27550 ft | 428 kts | 336° |
| 2026-04-22 13:03 | 37.32301 | 116.75401 | 27244 ft | 426 kts | 336° |
| 2026-04-22 13:03 | 37.35105 | 116.74343 | 26937 ft | 421 kts | 336° |
| 2026-04-22 13:04 | 37.37929 | 116.73279 | 26625 ft | 416 kts | 336° |
| 2026-04-22 13:04 | 37.40665 | 116.72244 | 26324 ft | 412 kts | 337° |
| 2026-04-22 13:04 | 37.43396 | 116.71211 | 26026 ft | 410 kts | 336° |
| 2026-04-22 13:04 | 37.46140 | 116.70171 | 25729 ft | 408 kts | 337° |
| 2026-04-22 13:05 | 37.48821 | 116.69154 | 25428 ft | 404 kts | 337° |
| 2026-04-22 13:05 | 37.51517 | 116.68130 | 25122 ft | 400 kts | 337° |
| 2026-04-22 13:05 | 37.54144 | 116.67134 | 24818 ft | 393 kts | 338° |
| 2026-04-22 13:05 | 37.56737 | 116.66149 | 24529 ft | 388 kts | 338° |
| 2026-04-22 13:06 | 37.59347 | 116.65153 | 24215 ft | 391 kts | 338° |
| 2026-04-22 13:06 | 37.61948 | 116.64163 | 23910 ft | 389 kts | 338° |
| 2026-04-22 13:06 | 37.64526 | 116.63180 | 23621 ft | 385 kts | 338° |
| 2026-04-22 13:06 | 37.67058 | 116.62215 | 23320 ft | 382 kts | 338° |
| 2026-04-22 13:07 | 37.69606 | 116.61243 | 23026 ft | 380 kts | 338° |
| 2026-04-22 13:07 | 37.72121 | 116.60282 | 22732 ft | 377 kts | 339° |
| 2026-04-22 13:07 | 37.74630 | 116.59324 | 22425 ft | 374 kts | 339° |
| 2026-04-22 13:07 | 37.77101 | 116.58379 | 22119 ft | 373 kts | 339° |
| 2026-04-22 13:08 | 37.79584 | 116.57428 | 21817 ft | 371 kts | 339° |
| 2026-04-22 13:08 | 37.82051 | 116.56484 | 21528 ft | 368 kts | 340° |
| 2026-04-22 13:08 | 37.84489 | 116.55549 | 21235 ft | 365 kts | 340° |
| 2026-04-22 13:08 | 37.86913 | 116.54620 | 20925 ft | 362 kts | 340° |
| 2026-04-22 13:09 | 37.89306 | 116.53701 | 20618 ft | 361 kts | 340° |
| 2026-04-22 13:09 | 37.91692 | 116.52785 | 20321 ft | 359 kts | 340° |
| 2026-04-22 13:09 | 37.94103 | 116.51858 | 20017 ft | 358 kts | 340° |
| 2026-04-22 13:09 | 37.96418 | 116.50812 | 19718 ft | 354 kts | 334° |
| 2026-04-22 13:10 | 37.98598 | 116.49400 | 19415 ft | 351 kts | 327° |
| 2026-04-22 13:10 | 38.00620 | 116.47668 | 19104 ft | 348 kts | 323° |
| 2026-04-22 13:10 | 38.02585 | 116.45866 | 18799 ft | 347 kts | 323° |
| 2026-04-22 13:10 | 38.04520 | 116.44089 | 18497 ft | 346 kts | 324° |
| 2026-04-22 13:11 | 38.06468 | 116.42301 | 18193 ft | 344 kts | 324° |
| 2026-04-22 13:11 | 38.08419 | 116.40511 | 17892 ft | 343 kts | 324° |
| 2026-04-22 13:11 | 38.10326 | 116.38760 | 17595 ft | 341 kts | 324° |
| 2026-04-22 13:11 | 38.12259 | 116.36986 | 17297 ft | 339 kts | 324° |
| 2026-04-22 13:12 | 38.14139 | 116.35259 | 17005 ft | 337 kts | 324° |
| 2026-04-22 13:12 | 38.15916 | 116.33626 | 16736 ft | 336 kts | 324° |
| 2026-04-22 13:12 | 38.17795 | 116.31898 | 16444 ft | 335 kts | 324° |
| 2026-04-22 13:12 | 38.19673 | 116.30170 | 16150 ft | 333 kts | 324° |
| 2026-04-22 13:13 | 38.21641 | 116.28590 | 15850 ft | 332 kts | 332° |
| 2026-04-22 13:13 | 38.23727 | 116.27406 | 15559 ft | 331 kts | 339° |
| 2026-04-22 13:13 | 38.25922 | 116.26609 | 15273 ft | 329 kts | 347° |
| 2026-04-22 13:13 | 38.28218 | 116.26214 | 14971 ft | 328 kts | 355° |
| 2026-04-22 13:14 | 38.30502 | 116.26240 | 14674 ft | 329 kts | 2° |
| 2026-04-22 13:14 | 38.32789 | 116.26686 | 14375 ft | 328 kts | 11° |
| 2026-04-22 13:14 | 38.34988 | 116.27447 | 14083 ft | 327 kts | 13° |
| 2026-04-22 13:14 | 38.37165 | 116.28241 | 13793 ft | 326 kts | 13° |
| 2026-04-22 13:15 | 38.39334 | 116.29010 | 13498 ft | 325 kts | 13° |
| 2026-04-22 13:15 | 38.41531 | 116.29775 | 13195 ft | 325 kts | 13° |
| 2026-04-22 13:15 | 38.43697 | 116.30523 | 12905 ft | 324 kts | 13° |
| 2026-04-22 13:15 | 38.45871 | 116.31273 | 12805 ft | 321 kts | 13° |
| 2026-04-22 13:16 | 38.48042 | 116.32021 | 12798 ft | 323 kts | 13° |
| 2026-04-22 13:16 | 38.50212 | 116.32770 | 12644 ft | 320 kts | 13° |
| 2026-04-22 13:16 | 38.52341 | 116.33505 | 12376 ft | 313 kts | 13° |
| 2026-04-22 13:16 | 38.54422 | 116.34224 | 12104 ft | 306 kts | 13° |
| 2026-04-22 13:17 | 38.56467 | 116.34930 | 11831 ft | 300 kts | 13° |
| 2026-04-22 13:17 | 38.58452 | 116.35617 | 11562 ft | 296 kts | 13° |
| 2026-04-22 13:17 | 38.60443 | 116.36305 | 11291 ft | 294 kts | 14° |
| 2026-04-22 13:17 | 38.62436 | 116.36995 | 11015 ft | 294 kts | 14° |
| 2026-04-22 13:18 | 38.64406 | 116.37686 | 10737 ft | 294 kts | 16° |
| 2026-04-22 13:18 | 38.66311 | 116.38617 | 10466 ft | 293 kts | 21° |
| 2026-04-22 13:18 | 38.68194 | 116.39626 | 10193 ft | 292 kts | 21° |
| 2026-04-22 13:18 | 38.70047 | 116.40620 | 9923 ft | 291 kts | 21° |
| 2026-04-22 13:19 | 38.71917 | 116.41623 | 9645 ft | 290 kts | 21° |
| 2026-04-22 13:19 | 38.73793 | 116.42627 | 9367 ft | 290 kts | 21° |
| 2026-04-22 13:19 | 38.75640 | 116.43617 | 9100 ft | 291 kts | 22° |
| 2026-04-22 13:19 | 38.77525 | 116.44627 | 8827 ft | 291 kts | 22° |
| 2026-04-22 13:20 | 38.79396 | 116.45631 | 8554 ft | 290 kts | 22° |
| 2026-04-22 13:20 | 38.81253 | 116.46628 | 8279 ft | 289 kts | 22° |
| 2026-04-22 13:20 | 38.83099 | 116.47619 | 8007 ft | 289 kts | 22° |
| 2026-04-22 13:20 | 38.84951 | 116.48614 | 7733 ft | 289 kts | 22° |
| 2026-04-22 13:21 | 38.86816 | 116.49616 | 7459 ft | 289 kts | 22° |
| 2026-04-22 13:21 | 38.88654 | 116.50605 | 7192 ft | 289 kts | 22° |
| 2026-04-22 13:21 | 38.90516 | 116.51607 | 6916 ft | 289 kts | 23° |
| 2026-04-22 13:21 | 38.92369 | 116.52605 | 6646 ft | 288 kts | 23° |
| 2026-04-22 13:22 | 38.94217 | 116.53600 | 6372 ft | 288 kts | 23° |
| 2026-04-22 13:22 | 38.96070 | 116.54600 | 6098 ft | 289 kts | 22° |
| 2026-04-22 13:22 | 38.97923 | 116.55599 | 5910 ft | 286 kts | 22° |
| 2026-04-22 13:22 | 38.99778 | 116.56600 | 5897 ft | 288 kts | 22° |
| 2026-04-22 13:23 | 39.01636 | 116.57604 | 5892 ft | 288 kts | 22° |
| 2026-04-22 13:23 | 39.03497 | 116.58609 | 5895 ft | 288 kts | 22° |
| 2026-04-22 13:23 | 39.05339 | 116.59605 | 5895 ft | 288 kts | 22° |
| 2026-04-22 13:23 | 39.07223 | 116.60516 | 5886 ft | 288 kts | 12° |
| 2026-04-22 13:24 | 39.09227 | 116.60662 | 5892 ft | 289 kts | 355° |
| 2026-04-22 13:24 | 39.11230 | 116.60407 | 5898 ft | 288 kts | 352° |
| 2026-04-22 13:24 | 39.13163 | 116.60108 | 5896 ft | 288 kts | 352° |
| 2026-04-22 13:24 | 39.15158 | 116.59795 | 5895 ft | 289 kts | 352° |
| 2026-04-22 13:25 | 39.16930 | 116.59518 | 5895 ft | 289 kts | 352° |
| 2026-04-22 13:25 | 39.19001 | 116.59197 | 5894 ft | 289 kts | 352° |
| 2026-04-22 13:25 | 39.21037 | 116.58881 | 5890 ft | 290 kts | 352° |
| 2026-04-22 13:25 | 39.23019 | 116.58572 | 5896 ft | 290 kts | 353° |
| 2026-04-22 13:26 | 39.25049 | 116.58257 | 5901 ft | 290 kts | 352° |
| 2026-04-22 13:26 | 39.27052 | 116.57945 | 5896 ft | 290 kts | 352° |
| 2026-04-22 13:26 | 39.29035 | 116.57637 | 5899 ft | 290 kts | 352° |
| 2026-04-22 13:26 | 39.31069 | 116.57320 | 5899 ft | 289 kts | 352° |
| 2026-04-22 13:27 | 39.33052 | 116.57011 | 5881 ft | 291 kts | 352° |
| 2026-04-22 13:27 | 39.35074 | 116.56696 | 5660 ft | 288 kts | 352° |
| 2026-04-22 13:27 | 39.37054 | 116.56387 | 5414 ft | 284 kts | 352° |
| 2026-04-22 13:27 | 39.38987 | 116.56086 | 5169 ft | 279 kts | 352° |
| 2026-04-22 13:28 | 39.40900 | 116.55788 | 4922 ft | 275 kts | 352° |
| 2026-04-22 13:28 | 39.42805 | 116.55489 | 4673 ft | 272 kts | 352° |
| 2026-04-22 13:28 | 39.44678 | 116.55197 | 4427 ft | 268 kts | 352° |
| 2026-04-22 13:28 | 39.46520 | 116.54909 | 4181 ft | 265 kts | 352° |
| 2026-04-22 13:29 | 39.48331 | 116.54626 | 3952 ft | 263 kts | 352° |
| 2026-04-22 13:29 | 39.50151 | 116.54340 | 3906 ft | 264 kts | 352° |
| 2026-04-22 13:29 | 39.51992 | 116.54052 | 3900 ft | 264 kts | 352° |
| 2026-04-22 13:29 | 39.53823 | 116.53765 | 3898 ft | 263 kts | 352° |
| 2026-04-22 13:30 | 39.55630 | 116.53482 | 3899 ft | 265 kts | 352° |
| 2026-04-22 13:30 | 39.57476 | 116.53192 | 3856 ft | 262 kts | 352° |
| 2026-04-22 13:30 | 39.59273 | 116.52910 | 3646 ft | 259 kts | 352° |
| 2026-04-22 13:30 | 39.61038 | 116.52633 | 3407 ft | 254 kts | 352° |
| 2026-04-22 13:31 | 39.62801 | 116.52355 | 3158 ft | 251 kts | 352° |
| 2026-04-22 13:31 | 39.64506 | 116.52087 | 2912 ft | 248 kts | 352° |
| 2026-04-22 13:31 | 39.66211 | 116.51819 | 2665 ft | 245 kts | 352° |
| 2026-04-22 13:31 | 39.67909 | 116.51551 | 2418 ft | 242 kts | 352° |
| 2026-04-22 13:32 | 39.69565 | 116.51290 | 2170 ft | 240 kts | 353° |
| 2026-04-22 13:32 | 39.71223 | 116.51028 | 2011 ft | 233 kts | 353° |
| 2026-04-22 13:32 | 39.72786 | 116.50783 | 1995 ft | 222 kts | 353° |
| 2026-04-22 13:32 | 39.74261 | 116.50550 | 1995 ft | 220 kts | 353° |
| 2026-04-22 13:33 | 39.75795 | 116.50307 | 1995 ft | 219 kts | 353° |
| 2026-04-22 13:33 | 39.77295 | 116.50062 | 1991 ft | 219 kts | 349° |
| 2026-04-22 13:33 | 39.78689 | 116.49281 | 1982 ft | 218 kts | 320° |
| 2026-04-22 13:33 | 39.79625 | 116.47743 | 1982 ft | 216 kts | 290° |
| 2026-04-22 13:34 | 39.79893 | 116.45839 | 1980 ft | 213 kts | 265° |
| 2026-04-22 13:34 | 39.79778 | 116.43946 | 1985 ft | 210 kts | 260° |
| 2026-04-22 13:34 | 39.79610 | 116.42069 | 1988 ft | 208 kts | 259° |
| 2026-04-22 13:34 | 39.79295 | 116.40247 | 1978 ft | 205 kts | 239° |
| 2026-04-22 13:35 | 39.78323 | 116.38934 | 1976 ft | 202 kts | 205° |
| 2026-04-22 13:35 | 39.76988 | 116.38522 | 1984 ft | 197 kts | 180° |
| 2026-04-22 13:35 | 39.75605 | 116.38622 | 1988 ft | 196 kts | 174° |
| 2026-04-22 13:35 | 39.74260 | 116.38819 | 1987 ft | 194 kts | 172° |
| 2026-04-22 13:36 | 39.72929 | 116.39040 | 1986 ft | 194 kts | 172° |
| 2026-04-22 13:36 | 39.71592 | 116.39259 | 1983 ft | 191 kts | 172° |
| 2026-04-22 13:36 | 39.70296 | 116.39470 | 1982 ft | 180 kts | 172° |
| 2026-04-22 13:36 | 39.69071 | 116.39668 | 1979 ft | 176 kts | 172° |
| 2026-04-22 13:37 | 39.67861 | 116.39861 | 1982 ft | 175 kts | 172° |
| 2026-04-22 13:37 | 39.66660 | 116.40050 | 1979 ft | 166 kts | 172° |
| 2026-04-22 13:37 | 39.65232 | 116.40276 | 1974 ft | 144 kts | 172° |
| 2026-04-22 13:37 | 39.64590 | 116.40379 | 1984 ft | 141 kts | 172° |
| 2026-04-22 13:38 | 39.63603 | 116.40535 | 2005 ft | 149 kts | 172° |
| 2026-04-22 13:38 | 39.61496 | 116.40865 | 1983 ft | 153 kts | 172° |
| 2026-04-22 13:38 | 39.60442 | 116.41032 | 1980 ft | 148 kts | 173° |
| 2026-04-22 13:39 | 39.59422 | 116.41193 | 1925 ft | 148 kts | 173° |
| 2026-04-22 13:39 | 39.58445 | 116.41347 | 1736 ft | 138 kts | 172° |
| 2026-04-22 13:39 | 39.57508 | 116.41496 | 1561 ft | 135 kts | 172° |
| 2026-04-22 13:39 | 39.56573 | 116.41644 | 1382 ft | 134 kts | 172° |
| 2026-04-22 13:40 | 39.55644 | 116.41790 | 1204 ft | 133 kts | 172° |
| 2026-04-22 13:40 | 39.54728 | 116.41935 | 1026 ft | 134 kts | 172° |
| 2026-04-22 13:40 | 39.53786 | 116.42084 | 843 ft | 134 kts | 172° |
| 2026-04-22 13:40 | 39.52853 | 116.42231 | 661 ft | 135 kts | 172° |
| 2026-04-22 13:41 | 39.51921 | 116.42378 | 476 ft | 136 kts | 173° |
| 2026-04-22 13:41 | 39.51092 | 116.42506 | 316 ft | 137 kts | 172° |
| 2026-04-22 13:41 | 39.50084 | 116.42667 | 121 ft | 137 kts | 173° |
| 2026-04-22 13:41 | 39.49221 | 116.42804 | 96 ft | 102 kts | 173° |
| 2026-04-22 13:42 | 39.48846 | 116.42863 | 96 ft | 39 kts | 173° |
| 2026-04-22 13:42 | 39.48626 | 116.42893 | 96 ft | 28 kts | 176° |
| 2026-04-22 13:42 | 39.48438 | 116.42868 | 96 ft | 26 kts | 193° |